Time;durP1;ratioP1;P1;durP2;ratioP2;P2;SDS_P1;SDS_P2;PMS_P1;PMS_P2;Temp;Humidity;BMP_temperature;BMP_pressure;BME280_temperature;BME280_humidity;BME280_pressure;Samples;Min_cycle;Max_cycle;Signal;HPM_P1;HPM_P2
2021/12/21 00:01:43;;;;;;;28.38;12.00;;;-0.40;99.90;;;;;;5073218;28;20044;-76
2021/12/21 00:04:09;;;;;;;35.28;14.40;;;-0.30;99.90;;;;;;5072530;28;20154;-76
2021/12/21 00:06:34;;;;;;;29.73;13.98;;;-0.40;99.90;;;;;;5072429;28;20097;-77
2021/12/21 00:09:00;;;;;;;25.23;12.45;;;-0.40;99.90;;;;;;5072359;28;20410;-76
2021/12/21 00:11:26;;;;;;;25.17;12.02;;;-0.40;99.90;;;;;;5056085;28;20075;-76
2021/12/21 00:14:09;;;;;;;26.30;12.73;;;-0.40;99.90;;;;;;5090663;28;20048;-76
2021/12/21 00:23:58;;;;;;;20.73;9.85;;;-0.40;99.90;;;;;;5072610;28;20072;-76
2021/12/21 00:26:23;;;;;;;25.08;10.98;;;-0.40;99.90;;;;;;5090693;28;20044;-76
2021/12/21 00:28:57;;;;;;;22.40;11.02;;;-0.40;99.90;;;;;;5072075;28;20094;-76
2021/12/21 00:31:25;;;;;;;22.75;11.68;;;-0.50;99.90;;;;;;5090485;28;20398;-76
2021/12/21 00:33:52;;;;;;;24.73;11.43;;;-0.50;99.90;;;;;;5062402;28;20059;-76
2021/12/21 00:36:20;;;;;;;29.52;11.23;;;-0.50;99.90;;;;;;5070058;28;20096;-76
2021/12/21 00:38:47;;;;;;;23.35;11.43;;;-0.50;99.90;;;;;;5070138;28;20087;-77
2021/12/21 00:41:14;;;;;;;22.83;11.43;;;-0.50;99.90;;;;;;5052022;28;20560;-76
2021/12/21 00:43:40;;;;;;;21.85;10.82;;;-0.50;99.90;;;;;;5051493;28;20049;-76
2021/12/21 00:46:06;;;;;;;25.17;11.27;;;-0.50;99.90;;;;;;5070068;28;20091;-76
2021/12/21 00:48:33;;;;;;;21.45;10.77;;;-0.50;99.90;;;;;;5069929;28;20090;-76
2021/12/21 00:51:02;;;;;;;22.95;10.38;;;-0.50;99.90;;;;;;5051603;28;20080;-76
2021/12/21 00:53:28;;;;;;;22.77;11.55;;;-0.60;99.90;;;;;;5051956;28;20084;-76
2021/12/21 00:55:54;;;;;;;22.10;11.18;;;-0.60;99.90;;;;;;5051372;28;20083;-76
2021/12/21 00:58:21;;;;;;;22.83;10.55;;;-0.60;99.90;;;;;;5069831;28;20083;-76
2021/12/21 01:00:46;;;;;;;22.83;10.27;;;-0.60;99.90;;;;;;5051895;28;20071;-76
2021/12/21 01:03:14;;;;;;;30.60;11.75;;;-0.60;99.90;;;;;;5052015;28;20482;-76
2021/12/21 01:08:10;;;;;;;20.65;10.38;;;-0.60;99.90;;;;;;5051628;28;20083;-76
2021/12/21 01:13:26;;;;;;;21.15;10.88;;;-0.60;99.90;;;;;;5052556;28;20506;-76
2021/12/21 01:16:40;;;;;;;16.05;9.07;;;-0.60;99.90;;;;;;5070338;28;20706;-76
2021/12/21 01:18:59;;;;;;;20.63;10.45;;;-0.60;99.90;;;;;;5046926;28;20109;-77
2021/12/21 01:21:29;;;;;;;21.70;11.68;;;-0.60;99.90;;;;;;5070456;28;20048;-76
2021/12/21 01:24:14;;;;;;;18.75;10.00;;;-0.60;99.90;;;;;;5070054;28;20048;-76
2021/12/21 01:29:19;;;;;;;20.90;9.20;;;-0.60;99.90;;;;;;5069990;28;20048;-76
2021/12/21 01:32:06;;;;;;;20.75;10.48;;;-0.60;99.90;;;;;;5070026;28;20049;-76
2021/12/21 01:37:05;;;;;;;20.27;9.65;;;-0.60;99.90;;;;;;5089967;28;20050;-76
2021/12/21 01:50:21;;;;;;;21.63;9.30;;;-0.70;99.90;;;;;;5071695;28;20407;-76
2021/12/21 01:52:47;;;;;;;12.80;8.50;;;-0.70;99.90;;;;;;5071759;28;20086;-77
2021/12/21 01:55:12;;;;;;;17.73;8.50;;;-0.70;99.90;;;;;;5089684;28;20490;-76
2021/12/21 01:57:38;;;;;;;16.20;8.43;;;-0.80;99.90;;;;;;5090061;28;20417;-76
2021/12/21 02:00:05;;;;;;;16.98;8.57;;;-0.80;99.90;;;;;;5071781;28;20525;-77
2021/12/21 02:02:31;;;;;;;21.13;9.13;;;-0.80;99.90;;;;;;5071261;28;20066;-76
2021/12/21 02:04:57;;;;;;;18.75;9.30;;;-0.80;99.90;;;;;;5071471;28;20048;-76
2021/12/21 02:07:22;;;;;;;20.30;8.95;;;-0.80;99.90;;;;;;5068148;28;20060;-77
2021/12/21 02:09:48;;;;;;;19.02;9.65;;;-0.80;99.90;;;;;;5068444;28;20109;-76
2021/12/21 02:12:18;;;;;;;20.85;9.02;;;-0.80;99.90;;;;;;5069110;28;20054;-76
2021/12/21 02:14:59;;;;;;;19.70;10.00;;;-0.80;99.90;;;;;;5051641;28;20076;-76
2021/12/21 02:22:47;;;;;;;21.63;9.25;;;-0.80;99.90;;;;;;5063322;28;21036;-77
2021/12/21 02:27:58;;;;;;;25.85;8.68;;;-0.80;99.90;;;;;;5068293;28;20053;-76
2021/12/21 02:30:24;;;;;;;16.27;8.52;;;-0.80;99.90;;;;;;5067797;28;20385;-76
2021/12/21 02:32:50;;;;;;;19.10;9.18;;;-0.80;99.90;;;;;;5066805;28;20040;-76
2021/12/21 02:35:16;;;;;;;23.17;9.93;;;-0.80;99.90;;;;;;5049818;28;20492;-76
2021/12/21 02:37:42;;;;;;;21.52;9.48;;;-0.80;99.90;;;;;;5048357;28;20081;-76
2021/12/21 02:40:08;;;;;;;20.00;9.95;;;-0.80;99.90;;;;;;5046830;28;20384;-77
2021/12/21 02:42:34;;;;;;;20.67;10.90;;;-0.80;99.90;;;;;;5047131;28;20056;-77
2021/12/21 02:45:00;;;;;;;22.33;10.57;;;-0.80;99.90;;;;;;5030315;28;20547;-77
2021/12/21 02:47:26;;;;;;;23.65;10.27;;;-0.80;99.90;;;;;;5046461;28;20053;-76
2021/12/21 02:49:51;;;;;;;22.65;9.77;;;-0.80;99.90;;;;;;5048008;28;20044;-76
2021/12/21 02:52:17;;;;;;;26.58;11.15;;;-0.90;99.90;;;;;;5065516;28;20049;-76
2021/12/21 02:54:43;;;;;;;16.60;8.82;;;-0.80;99.90;;;;;;5068164;28;20055;-77
2021/12/21 02:57:09;;;;;;;19.70;8.93;;;-0.90;99.90;;;;;;5068718;28;20048;-77
2021/12/21 02:59:34;;;;;;;19.23;8.80;;;-0.90;99.90;;;;;;5067509;28;20041;-77
2021/12/21 03:02:00;;;;;;;19.92;9.63;;;-0.80;99.90;;;;;;5069032;28;20075;-77
2021/12/21 03:04:26;;;;;;;21.05;9.50;;;-0.90;99.90;;;;;;5067749;28;20415;-76
2021/12/21 03:11:56;;;;;;;17.70;9.50;;;-0.90;99.90;;;;;;5092710;28;20060;-77
2021/12/21 03:14:22;;;;;;;20.08;9.80;;;-0.90;99.90;;;;;;5058287;28;20047;-77
2021/12/21 03:16:48;;;;;;;25.45;10.23;;;-0.90;99.90;;;;;;5075054;28;20559;-76
2021/12/21 03:19:14;;;;;;;20.38;9.77;;;-0.90;99.90;;;;;;5074841;28;20134;-77
2021/12/21 03:21:39;;;;;;;17.92;10.82;;;-0.90;99.90;;;;;;5074259;28;20032;-77
2021/12/21 03:24:07;;;;;;;19.48;10.48;;;-0.90;99.90;;;;;;5074732;28;20036;-77
2021/12/21 03:26:32;;;;;;;20.38;10.88;;;-1.00;99.90;;;;;;5055111;28;20036;-77
2021/12/21 03:28:58;;;;;;;22.88;12.02;;;-0.90;99.90;;;;;;5054160;28;20044;-77
2021/12/21 03:31:25;;;;;;;20.55;10.07;;;-1.00;99.90;;;;;;5054452;28;20121;-77
2021/12/21 03:33:50;;;;;;;23.27;10.65;;;-0.90;99.90;;;;;;5054301;28;20048;-77
2021/12/21 03:36:16;;;;;;;30.23;12.90;;;-1.00;99.90;;;;;;5054401;28;20047;-77
2021/12/21 03:38:53;;;;;;;27.80;10.93;;;-1.00;99.90;;;;;;5054569;28;20047;-77
2021/12/21 03:41:20;;;;;;;19.73;10.45;;;-1.00;99.90;;;;;;5071975;28;20514;-77
2021/12/21 03:43:46;;;;;;;23.17;11.30;;;-1.00;99.90;;;;;;5053207;28;20083;-77
2021/12/21 03:46:14;;;;;;;19.92;10.45;;;-1.00;99.90;;;;;;5053258;28;20063;-77
2021/12/21 03:48:44;;;;;;;17.13;10.85;;;-1.00;99.90;;;;;;5053491;28;20045;-77
2021/12/21 03:51:10;;;;;;;16.83;9.70;;;-1.00;99.90;;;;;;5053847;28;20422;-77
2021/12/21 03:53:37;;;;;;;22.00;10.90;;;-1.00;99.90;;;;;;5054459;28;20091;-76
2021/12/21 03:56:24;;;;;;;19.98;11.15;;;-1.00;99.90;;;;;;5053984;28;20049;-76
2021/12/21 03:58:50;;;;;;;21.52;10.77;;;-1.00;99.90;;;;;;5071365;28;20053;-77
2021/12/21 04:01:16;;;;;;;15.68;9.80;;;-1.00;99.90;;;;;;5053797;28;20040;-77
2021/12/21 04:03:42;;;;;;;22.25;11.20;;;-1.00;99.90;;;;;;5071702;28;20051;-77
2021/12/21 04:06:07;;;;;;;19.05;9.55;;;-1.00;99.90;;;;;;5071453;28;20135;-77
2021/12/21 04:08:34;;;;;;;19.02;8.48;;;-1.00;99.90;;;;;;5053624;28;20449;-76
2021/12/21 04:11:01;;;;;;;15.77;8.00;;;-1.00;99.90;;;;;;5071047;28;20048;-77
2021/12/21 04:13:27;;;;;;;19.25;8.77;;;-1.00;99.90;;;;;;5071718;28;20122;-77
2021/12/21 04:15:54;;;;;;;19.70;8.35;;;-1.10;99.90;;;;;;5053353;28;20052;-77
2021/12/21 04:18:22;;;;;;;19.70;9.35;;;-1.00;99.90;;;;;;5053015;28;20048;-77
2021/12/21 04:20:49;;;;;;;18.63;9.75;;;-1.00;99.90;;;;;;5053511;28;20072;-77
2021/12/21 04:23:15;;;;;;;19.13;9.55;;;-1.00;99.90;;;;;;5052789;28;20048;-77
2021/12/21 04:25:41;;;;;;;21.80;9.23;;;-1.00;99.90;;;;;;5083230;28;20063;-77
2021/12/21 04:28:06;;;;;;;15.18;8.43;;;-1.00;99.90;;;;;;5073187;28;20080;-77
2021/12/21 04:30:32;;;;;;;15.85;8.77;;;-1.00;99.90;;;;;;5091272;28;20036;-77
2021/12/21 04:32:58;;;;;;;17.73;9.50;;;-1.00;99.90;;;;;;5072404;28;20044;-77
2021/12/21 04:35:23;;;;;;;21.58;9.73;;;-1.10;99.90;;;;;;5055750;28;20516;-77
2021/12/21 04:37:57;;;;;;;15.05;9.20;;;-1.00;99.90;;;;;;5089930;28;20177;-77
2021/12/21 04:40:35;;;;;;;22.10;10.02;;;-1.00;99.90;;;;;;5072455;28;20052;-77
2021/12/21 04:43:01;;;;;;;22.63;10.93;;;-1.00;99.90;;;;;;5073166;28;20045;-77
2021/12/21 04:45:27;;;;;;;16.65;9.35;;;-1.00;99.90;;;;;;5072875;28;20524;-77
2021/12/21 04:47:52;;;;;;;18.45;9.80;;;-1.00;99.90;;;;;;5090633;28;20405;-77
2021/12/21 04:50:18;;;;;;;18.33;9.73;;;-1.00;99.90;;;;;;5091322;28;20117;-77
2021/12/21 04:52:44;;;;;;;21.27;10.23;;;-1.00;99.90;;;;;;5073095;28;20132;-76
2021/12/21 04:55:09;;;;;;;19.20;9.90;;;-1.10;99.90;;;;;;5056088;28;20044;-76
2021/12/21 04:57:35;;;;;;;23.58;9.95;;;-1.10;99.90;;;;;;5073149;28;20387;-76
2021/12/21 05:00:02;;;;;;;19.83;9.23;;;-1.10;99.90;;;;;;5090493;28;20493;-76
2021/12/21 05:02:28;;;;;;;15.77;9.45;;;-1.10;99.90;;;;;;5072599;28;20052;-76
2021/12/21 05:04:53;;;;;;;16.55;8.98;;;-1.10;99.90;;;;;;5090450;28;20379;-76
2021/12/21 05:07:23;;;;;;;18.27;8.90;;;-1.10;99.90;;;;;;5090424;28;20056;-76
2021/12/21 05:09:55;;;;;;;17.60;8.93;;;-1.10;99.90;;;;;;5090773;28;20155;-77
2021/12/21 05:12:21;;;;;;;17.15;7.85;;;-1.10;99.90;;;;;;5090384;28;20048;-76
2021/12/21 05:14:47;;;;;;;15.32;8.40;;;-1.10;99.90;;;;;;5072529;28;20078;-76
2021/12/21 05:17:12;;;;;;;19.63;8.13;;;-1.10;99.90;;;;;;5090177;28;20463;-76
2021/12/21 05:19:38;;;;;;;14.45;7.95;;;-1.10;99.90;;;;;;5090542;28;20048;-76
2021/12/21 05:22:04;;;;;;;14.32;8.30;;;-1.10;99.90;;;;;;5090253;28;20513;-76
2021/12/21 05:24:29;;;;;;;16.63;8.07;;;-1.10;99.90;;;;;;5088143;28;20493;-77
2021/12/21 05:26:55;;;;;;;20.23;10.45;;;-1.20;99.90;;;;;;5069562;28;20040;-76
2021/12/21 05:29:22;;;;;;;17.15;9.48;;;-1.20;99.90;;;;;;5069168;28;20761;-76
2021/12/21 05:31:47;;;;;;;20.67;10.00;;;-1.10;99.90;;;;;;5052201;28;20051;-76
2021/12/21 05:34:13;;;;;;;15.48;9.57;;;-1.20;99.90;;;;;;5052062;28;20119;-76
2021/12/21 05:36:39;;;;;;;18.95;9.35;;;-1.20;99.90;;;;;;5070122;28;20728;-76
2021/12/21 05:39:14;;;;;;;16.70;9.07;;;-1.20;99.90;;;;;;5069318;28;20095;-76
2021/12/21 05:41:48;;;;;;;17.90;10.13;;;-1.20;99.90;;;;;;5052400;28;20052;-76
2021/12/21 05:44:15;;;;;;;17.02;9.98;;;-1.20;99.90;;;;;;5069911;28;20072;-76
2021/12/21 05:46:41;;;;;;;14.02;9.32;;;-1.20;99.90;;;;;;5069665;28;20109;-76
2021/12/21 05:49:06;;;;;;;19.30;10.50;;;-1.20;99.90;;;;;;5051764;28;20052;-76
2021/12/21 05:51:32;;;;;;;19.50;9.77;;;-1.20;99.90;;;;;;5069378;28;20048;-76
2021/12/21 05:53:58;;;;;;;19.90;10.65;;;-1.20;99.90;;;;;;5069707;28;20422;-76
2021/12/21 05:56:24;;;;;;;18.52;9.45;;;-1.20;99.90;;;;;;5069510;28;20036;-76
2021/12/21 05:58:50;;;;;;;17.23;9.43;;;-1.20;99.90;;;;;;5069850;28;20376;-76
2021/12/21 06:01:16;;;;;;;14.13;9.45;;;-1.20;99.90;;;;;;5069534;28;20044;-76
2021/12/21 06:03:42;;;;;;;16.50;9.80;;;-1.20;99.90;;;;;;5051559;28;20517;-76
2021/12/21 06:06:12;;;;;;;16.48;10.27;;;-1.20;99.90;;;;;;5069552;28;20048;-76
2021/12/21 06:08:38;;;;;;;16.85;9.90;;;-1.20;99.90;;;;;;5051409;28;20067;-75
2021/12/21 06:11:06;;;;;;;17.15;8.82;;;-1.30;99.90;;;;;;5052081;28;20418;-76
2021/12/21 06:26:25;;;;;;;16.25;9.25;;;-1.30;99.90;;;;;;5086847;28;20075;-76
2021/12/21 06:28:51;;;;;;;16.17;9.75;;;-1.20;99.90;;;;;;5089171;28;20539;-76
2021/12/21 06:31:17;;;;;;;14.90;9.30;;;-1.30;99.90;;;;;;5071536;28;20047;-76
2021/12/21 06:33:43;;;;;;;18.35;10.07;;;-1.20;99.90;;;;;;5089548;28;20490;-76
2021/12/21 06:36:09;;;;;;;16.58;9.32;;;-1.30;99.90;;;;;;5089019;28;20063;-76
2021/12/21 06:38:35;;;;;;;17.92;9.98;;;-1.30;99.90;;;;;;5088771;28;20502;-76
2021/12/21 06:41:00;;;;;;;15.30;9.05;;;-1.30;99.90;;;;;;5075601;28;20131;-75
2021/12/21 06:43:26;;;;;;;15.95;10.43;;;-1.30;99.90;;;;;;5075476;28;20130;-76
2021/12/21 06:46:01;;;;;;;14.75;9.38;;;-1.30;99.90;;;;;;5082262;28;20050;-76
2021/12/21 06:51:28;;;;;;;18.10;9.25;;;-1.30;99.90;;;;;;5065251;28;20055;-74
2021/12/21 06:53:56;;;;;;;16.05;9.88;;;-1.30;99.90;;;;;;5073292;28;20099;-72
2021/12/21 06:56:24;;;;;;;17.75;9.65;;;-1.30;99.90;;;;;;5056126;28;20055;-73
2021/12/21 06:58:50;;;;;;;15.65;8.65;;;-1.30;99.90;;;;;;5076327;28;20048;-77
2021/12/21 07:01:16;;;;;;;17.63;9.18;;;-1.30;99.90;;;;;;5084000;28;20059;-73
2021/12/21 07:03:43;;;;;;;15.82;8.95;;;-1.30;99.90;;;;;;5072697;28;20523;-74
2021/12/21 07:06:10;;;;;;;17.23;9.20;;;-1.30;99.90;;;;;;5056181;28;20053;-74
2021/12/21 07:08:47;;;;;;;18.55;10.70;;;-1.30;99.90;;;;;;5071444;28;20076;-75
2021/12/21 07:11:57;;;;;;;14.43;8.95;;;-1.30;99.90;;;;;;5068785;28;20054;-74
2021/12/21 07:19:36;;;;;;;18.02;10.80;;;-1.40;99.90;;;;;;5054080;28;20041;-75
2021/12/21 07:22:02;;;;;;;18.45;9.68;;;-1.30;99.90;;;;;;5063304;28;20077;-75
2021/12/21 07:24:27;;;;;;;19.25;11.00;;;-1.40;99.90;;;;;;5057708;28;20040;-75
2021/12/21 07:26:53;;;;;;;18.83;10.73;;;-1.40;99.90;;;;;;5073711;28;20104;-75
2021/12/21 07:29:19;;;;;;;13.88;9.27;;;-1.40;99.90;;;;;;5052766;28;20040;-75
2021/12/21 07:31:45;;;;;;;15.05;9.18;;;-1.40;99.90;;;;;;5037841;28;20045;-75
2021/12/21 07:34:11;;;;;;;19.70;10.77;;;-1.40;99.90;;;;;;5058481;28;20048;-75
2021/12/21 07:36:37;;;;;;;19.00;10.60;;;-1.40;99.90;;;;;;5066840;28;20098;-75
2021/12/21 07:39:06;;;;;;;21.70;11.40;;;-1.40;99.90;;;;;;5065219;28;20044;-75
2021/12/21 07:41:33;;;;;;;18.65;10.13;;;-1.40;99.90;;;;;;5065972;28;20740;-75
2021/12/21 07:43:59;;;;;;;19.63;10.80;;;-1.40;99.90;;;;;;5052787;28;20102;-75
2021/12/21 07:46:24;;;;;;;19.08;10.13;;;-1.40;99.90;;;;;;5059340;28;20080;-75
2021/12/21 07:48:50;;;;;;;16.98;10.15;;;-1.30;99.90;;;;;;5088582;28;20044;-75
2021/12/21 07:51:16;;;;;;;18.30;10.02;;;-1.30;99.90;;;;;;5070644;28;20124;-75
2021/12/21 07:53:43;;;;;;;18.08;10.52;;;-1.40;99.90;;;;;;5086775;28;20048;-75
2021/12/21 07:56:09;;;;;;;15.13;9.80;;;-1.40;99.90;;;;;;5090880;28;20052;-73
2021/12/21 07:58:35;;;;;;;15.02;9.35;;;-1.40;99.90;;;;;;5071245;28;20036;-74
2021/12/21 08:01:04;;;;;;;16.42;9.98;;;-1.40;99.90;;;;;;5073179;28;20083;-74
2021/12/21 08:03:32;;;;;;;16.83;10.02;;;-1.40;99.90;;;;;;5071014;28;20070;-74
2021/12/21 08:06:00;;;;;;;16.25;9.20;;;-1.40;99.90;;;;;;5089005;28;20097;-74
2021/12/21 08:08:28;;;;;;;17.00;10.13;;;-1.40;99.90;;;;;;5075512;28;20086;-76
2021/12/21 08:11:11;;;;;;;17.02;9.95;;;-1.40;99.90;;;;;;5090229;28;20430;-76
2021/12/21 08:13:39;;;;;;;19.10;9.93;;;-1.40;99.90;;;;;;5087573;28;20079;-76
2021/12/21 08:16:05;;;;;;;18.35;9.40;;;-1.40;99.90;;;;;;5082912;28;20131;-75
2021/12/21 08:18:31;;;;;;;16.02;9.38;;;-1.40;99.90;;;;;;5081278;28;20040;-75
2021/12/21 08:20:57;;;;;;;18.20;9.48;;;-1.40;99.90;;;;;;5086821;28;20090;-75
2021/12/21 08:23:23;;;;;;;16.27;9.30;;;-1.40;99.90;;;;;;5080910;28;20600;-75
2021/12/21 08:25:49;;;;;;;16.65;9.63;;;-1.30;99.90;;;;;;5076975;28;20048;-75
2021/12/21 08:28:15;;;;;;;17.92;9.93;;;-1.30;99.90;;;;;;5065302;28;20044;-75
2021/12/21 08:30:41;;;;;;;19.05;9.77;;;-1.30;99.90;;;;;;5079253;28;20406;-75
2021/12/21 08:33:07;;;;;;;21.08;10.25;;;-1.30;99.90;;;;;;5071427;28;20505;-75
2021/12/21 08:35:32;;;;;;;18.23;10.88;;;-1.30;99.90;;;;;;5080794;28;20387;-75
2021/12/21 08:38:06;;;;;;;17.95;10.70;;;-1.30;99.90;;;;;;5073956;28;20063;-75
2021/12/21 08:40:39;;;;;;;17.77;11.05;;;-1.20;99.90;;;;;;5035519;28;20053;-76
2021/12/21 08:43:15;;;;;;;22.25;10.52;;;-1.20;99.90;;;;;;5035592;28;20079;-76
2021/12/21 08:45:45;;;;;;;26.52;11.40;;;-1.20;99.90;;;;;;5051398;28;20109;-75
2021/12/21 08:48:12;;;;;;;21.50;11.20;;;-1.20;99.90;;;;;;5055881;28;20055;-75
2021/12/21 08:50:39;;;;;;;17.55;10.63;;;-1.10;99.90;;;;;;5063275;28;20097;-75
2021/12/21 08:53:04;;;;;;;21.02;11.27;;;-1.10;99.90;;;;;;5059251;28;20040;-76
2021/12/21 08:55:31;;;;;;;18.15;11.05;;;-1.10;99.90;;;;;;5071811;28;20457;-75
2021/12/21 08:57:57;;;;;;;19.55;11.05;;;-1.10;99.90;;;;;;5070832;28;20097;-76
2021/12/21 09:00:23;;;;;;;20.00;12.40;;;-1.10;99.90;;;;;;5053742;28;20070;-75
2021/12/21 09:02:50;;;;;;;19.20;11.55;;;-1.00;99.90;;;;;;5059140;28;20398;-74
2021/12/21 09:05:20;;;;;;;22.90;11.90;;;-1.00;99.90;;;;;;5051522;28;20048;-75
2021/12/21 09:07:48;;;;;;;23.63;12.00;;;-1.00;99.90;;;;;;5066923;28;20415;-74
2021/12/21 09:10:17;;;;;;;20.75;11.20;;;-1.00;99.90;;;;;;5069184;28;20126;-76
2021/12/21 09:12:43;;;;;;;20.70;11.43;;;-0.90;99.90;;;;;;5069656;28;20094;-76
2021/12/21 09:15:10;;;;;;;18.90;11.13;;;-0.90;99.90;;;;;;5087825;28;20139;-76
2021/12/21 09:17:36;;;;;;;19.52;11.23;;;-0.90;99.90;;;;;;5082298;28;20111;-75
2021/12/21 09:20:03;;;;;;;17.77;10.68;;;-0.80;99.90;;;;;;5068776;28;20439;-76
2021/12/21 09:22:28;;;;;;;18.30;10.93;;;-0.80;99.90;;;;;;5089012;28;20055;-75
2021/12/21 09:24:56;;;;;;;16.75;10.70;;;-0.70;99.90;;;;;;5064295;28;20605;-75
2021/12/21 09:27:21;;;;;;;20.15;10.63;;;-0.70;99.90;;;;;;5069327;28;20127;-75
2021/12/21 09:29:47;;;;;;;15.95;9.48;;;-0.70;99.90;;;;;;5069188;28;20151;-75
2021/12/21 09:32:15;;;;;;;15.75;9.75;;;-0.60;99.90;;;;;;5058056;28;20052;-74
2021/12/21 09:34:42;;;;;;;15.63;10.80;;;-0.60;99.90;;;;;;5071882;28;20049;-73
2021/12/21 09:37:14;;;;;;;16.27;9.90;;;-0.50;99.90;;;;;;5055137;28;20112;-74
2021/12/21 09:39:41;;;;;;;18.88;10.25;;;-0.50;99.90;;;;;;5059331;28;20044;-73
2021/12/21 09:42:08;;;;;;;17.38;10.75;;;-0.50;99.90;;;;;;5064697;28;20051;-74
2021/12/21 09:44:33;;;;;;;17.65;10.27;;;-0.50;99.90;;;;;;5070584;28;20048;-74
2021/12/21 09:47:00;;;;;;;20.63;10.35;;;-0.40;99.90;;;;;;5070044;28;20418;-74
2021/12/21 09:49:25;;;;;;;18.52;11.20;;;-0.40;99.90;;;;;;5082142;28;20157;-74
2021/12/21 09:51:51;;;;;;;17.45;10.73;;;-0.40;99.90;;;;;;5089793;28;20533;-74
2021/12/21 09:54:20;;;;;;;21.70;9.68;;;-0.30;99.90;;;;;;5084319;28;20048;-74
2021/12/21 09:56:46;;;;;;;19.08;10.15;;;-0.30;99.90;;;;;;5071542;28;20518;-74
2021/12/21 09:59:12;;;;;;;16.67;10.07;;;-0.30;99.90;;;;;;5075551;28;20040;-74
2021/12/21 10:01:38;;;;;;;20.45;11.05;;;-0.30;99.90;;;;;;5071514;28;20051;-74
2021/12/21 10:04:03;;;;;;;24.65;11.40;;;-0.20;99.90;;;;;;5064608;28;20045;-74
2021/12/21 10:06:29;;;;;;;17.10;10.15;;;-0.20;99.90;;;;;;5051660;28;20063;-74
2021/12/21 10:09:06;;;;;;;16.08;10.52;;;-0.20;99.90;;;;;;5075370;28;20058;-74
2021/12/21 10:11:41;;;;;;;19.73;10.55;;;-0.10;99.90;;;;;;5069154;28;20470;-74
2021/12/21 10:14:07;;;;;;;17.20;10.85;;;-0.10;99.90;;;;;;5082157;28;20129;-74
2021/12/21 10:16:33;;;;;;;17.70;9.63;;;0.00;99.90;;;;;;5060748;28;20052;-74
2021/12/21 10:18:59;;;;;;;18.85;10.27;;;0.00;99.90;;;;;;5065664;28;20555;-74
2021/12/21 10:21:24;;;;;;;17.52;9.68;;;0.00;99.90;;;;;;5069308;28;20076;-74
2021/12/21 10:23:51;;;;;;;15.85;9.77;;;0.10;99.90;;;;;;5052710;28;20147;-74
2021/12/21 10:26:24;;;;;;;20.08;10.27;;;0.10;99.90;;;;;;5068677;28;20685;-74
2021/12/21 10:28:51;;;;;;;15.60;9.83;;;0.20;99.90;;;;;;5067967;28;20040;-73
2021/12/21 10:31:25;;;;;;;17.15;9.98;;;0.20;99.90;;;;;;5057606;28;20306;-74
2021/12/21 10:33:51;;;;;;;16.75;9.98;;;0.30;99.90;;;;;;5087313;28;20044;-74
2021/12/21 10:36:17;;;;;;;19.30;9.88;;;0.30;99.90;;;;;;5089597;28;20131;-72
2021/12/21 10:38:48;;;;;;;15.05;9.65;;;0.40;99.90;;;;;;5070483;28;20565;-71
2021/12/21 10:41:26;;;;;;;16.52;9.77;;;0.40;99.90;;;;;;5068796;28;20121;-72
2021/12/21 10:44:10;;;;;;;17.40;10.13;;;0.40;99.90;;;;;;5069677;28;20051;-73
2021/12/21 10:46:39;;;;;;;14.70;8.77;;;0.60;99.90;;;;;;5051507;28;20068;-73
2021/12/21 10:49:11;;;;;;;21.20;10.95;;;1.00;99.90;;;;;;5070248;28;20049;-74
2021/12/21 10:51:50;;;;;;;16.77;8.48;;;1.40;99.90;;;;;;5071185;28;20044;-74
2021/12/21 10:54:29;;;;;;;16.37;10.50;;;1.70;99.90;;;;;;5086076;28;20425;-74
2021/12/21 10:57:19;;;;;;;18.75;11.88;;;1.80;99.90;;;;;;5087748;28;20406;-74
2021/12/21 10:59:50;;;;;;;17.52;8.75;;;1.90;99.90;;;;;;5073613;28;20604;-74
2021/12/21 11:02:24;;;;;;;12.38;8.30;;;2.10;99.90;;;;;;5075995;28;20052;-74
2021/12/21 11:04:54;;;;;;;17.15;9.63;;;2.20;99.90;;;;;;5074299;28;20450;-74
2021/12/21 11:07:31;;;;;;;15.35;9.82;;;2.60;99.90;;;;;;5066093;28;20411;-74
2021/12/21 11:10:12;;;;;;;15.80;8.52;;;2.80;99.90;;;;;;5051450;28;20045;-74
2021/12/21 11:12:48;;;;;;;14.50;9.15;;;3.10;99.90;;;;;;5046218;28;20414;-74
2021/12/21 11:15:16;;;;;;;15.80;9.20;;;3.70;99.90;;;;;;5046928;28;20429;-74
2021/12/21 11:17:42;;;;;;;15.35;8.73;;;4.20;99.90;;;;;;5045323;28;20493;-74
2021/12/21 11:20:10;;;;;;;15.18;8.73;;;4.60;99.90;;;;;;5048675;28;20591;-74
2021/12/21 11:22:39;;;;;;;11.88;8.45;;;5.00;99.90;;;;;;5048329;28;20413;-74
2021/12/21 11:25:06;;;;;;;14.32;8.15;;;5.10;99.90;;;;;;5048173;28;21046;-74
2021/12/21 11:27:34;;;;;;;15.50;9.07;;;5.00;99.90;;;;;;5048028;28;20915;-74
2021/12/21 11:30:03;;;;;;;15.75;7.82;;;5.20;99.90;;;;;;5061933;28;20067;-74
2021/12/21 11:32:31;;;;;;;12.93;6.75;;;5.40;99.90;;;;;;5062025;28;20052;-74
2021/12/21 11:37:42;;;;;;;;;;;5.00;99.90;;;;;;5072575;28;19921;-74
2021/12/21 11:40:09;;;;;;;;;;;4.50;99.90;;;;;;5054815;28;19927;-74
2021/12/21 11:42:56;;;;;;;;;;;4.20;99.90;;;;;;5050447;28;19924;-74
2021/12/21 11:45:31;;;;;;;;;;;3.90;99.90;;;;;;5052499;28;19928;-74
2021/12/21 11:48:09;;;;;;;;;;;3.60;99.90;;;;;;5051932;28;19924;-74
2021/12/21 11:50:39;;;;;;;;;;;3.40;99.90;;;;;;5052401;28;20062;-75
2021/12/21 11:53:05;;;;;;;;;;;3.10;99.90;;;;;;5052557;28;19927;-74
2021/12/21 11:55:33;;;;;;;;;;;3.00;99.90;;;;;;5052562;28;19921;-75
2021/12/21 11:58:00;;;;;;;;;;;2.90;99.90;;;;;;5051827;28;19924;-74
2021/12/21 12:00:34;;;;;;;;;;;2.70;99.90;;;;;;5051759;28;19920;-74
2021/12/21 12:03:11;;;;;;;;;;;2.70;99.90;;;;;;5050095;28;19925;-75
2021/12/21 12:05:40;;;;;;;;;;;2.60;99.90;;;;;;5037901;28;19925;-75
2021/12/21 12:08:11;;;;;;;12.25;6.93;;;2.70;99.90;;;;;;5070876;28;19943;-75
2021/12/21 12:10:48;;;;;;;11.88;7.35;;;2.70;99.90;;;;;;5062553;28;20510;-75
2021/12/21 12:13:40;;;;;;;13.00;6.63;;;2.90;99.90;;;;;;5049212;28;20045;-74
2021/12/21 12:16:11;;;;;;;16.27;9.25;;;3.40;99.90;;;;;;5049042;28;20454;-75
2021/12/21 12:18:45;;;;;;;14.32;8.77;;;3.70;99.90;;;;;;5056909;28;20541;-74
2021/12/21 12:21:15;;;;;;;11.75;7.80;;;3.80;99.90;;;;;;5060905;28;20052;-75
2021/12/21 12:23:47;;;;;;;13.52;7.32;;;3.70;99.90;;;;;;5063103;28;20037;-75
2021/12/21 12:26:31;;;;;;;10.73;6.55;;;3.90;99.90;;;;;;5062541;28;20048;-75
2021/12/21 12:29:18;;;;;;;13.77;8.35;;;4.30;99.90;;;;;;5046591;28;20868;-75
2021/12/21 12:32:14;;;;;;;14.73;9.15;;;4.40;99.90;;;;;;5059866;28;20415;-75
2021/12/21 12:34:42;;;;;;;14.82;9.50;;;4.30;99.90;;;;;;5050936;28;20441;-75
2021/12/21 12:37:24;;;;;;;13.75;8.77;;;4.30;99.90;;;;;;5039895;28;20499;-75
2021/12/21 12:39:59;;;;;;;17.00;9.60;;;4.20;99.90;;;;;;5047183;28;20463;-75
2021/12/21 12:42:28;;;;;;;13.38;8.98;;;4.10;99.90;;;;;;5056028;28;20412;-75
2021/12/21 12:45:03;;;;;;;12.35;8.50;;;3.90;99.90;;;;;;5060230;28;20471;-75
2021/12/21 12:47:28;;;;;;;15.68;9.75;;;3.70;99.90;;;;;;5048794;28;20417;-75
2021/12/21 12:49:55;;;;;;;12.02;7.03;;;3.90;99.90;;;;;;5056688;28;20149;-75
2021/12/21 12:52:28;;;;;;;11.88;7.25;;;4.00;99.90;;;;;;5063882;28;20044;-74
2021/12/21 12:54:59;;;;;;;15.88;7.80;;;4.10;99.90;;;;;;5069982;28;20083;-75
2021/12/21 12:57:38;;;;;;;13.07;6.50;;;3.90;99.90;;;;;;5052858;28;20037;-75
2021/12/21 13:00:12;;;;;;;13.45;7.15;;;3.90;99.90;;;;;;5051841;28;20442;-74
2021/12/21 13:02:37;;;;;;;13.85;6.18;;;4.00;99.90;;;;;;5046745;28;20059;-74
2021/12/21 13:05:08;;;;;;;9.02;6.38;;;4.20;99.90;;;;;;5047130;28;20049;-75
2021/12/21 13:07:34;;;;;;;11.38;7.03;;;4.30;99.90;;;;;;5066967;28;20049;-75
2021/12/21 13:10:08;;;;;;;12.60;6.68;;;4.30;99.90;;;;;;5070713;28;20099;-75
2021/12/21 13:12:34;;;;;;;12.23;5.90;;;4.40;99.90;;;;;;5065220;28;20493;-75
2021/12/21 13:15:00;;;;;;;14.15;6.85;;;4.20;99.90;;;;;;5068718;28;20052;-75
2021/12/21 13:17:27;;;;;;;11.90;6.55;;;4.10;99.90;;;;;;5070908;28;20048;-75
2021/12/21 13:19:52;;;;;;;11.85;6.60;;;4.00;99.90;;;;;;5071495;28;20052;-75
2021/12/21 13:22:22;;;;;;;13.02;6.68;;;4.00;99.90;;;;;;5077374;28;20368;-75
2021/12/21 13:24:48;;;;;;;15.77;7.13;;;4.20;99.90;;;;;;5068591;28;20090;-74
2021/12/21 13:27:15;;;;;;;11.05;6.55;;;4.30;99.90;;;;;;5061821;28;20052;-75
2021/12/21 13:29:42;;;;;;;13.27;8.30;;;4.40;99.90;;;;;;5066337;28;20420;-75
2021/12/21 13:32:10;;;;;;;15.80;7.40;;;4.60;99.90;;;;;;5067028;28;20052;-75
2021/12/21 13:34:39;;;;;;;12.95;6.65;;;4.60;99.90;;;;;;5068271;28;20052;-75
2021/12/21 13:37:07;;;;;;;11.07;6.45;;;4.50;99.90;;;;;;5064155;28;20052;-74
2021/12/21 13:39:35;;;;;;;13.67;7.87;;;4.20;99.90;;;;;;5049762;28;20474;-75
2021/12/21 13:42:03;;;;;;;13.98;7.47;;;4.20;99.90;;;;;;5052409;28;20412;-74
2021/12/21 13:44:33;;;;;;;9.52;6.88;;;4.00;99.90;;;;;;5068451;28;20040;-74
2021/12/21 13:47:02;;;;;;;11.15;6.22;;;3.80;99.90;;;;;;5066664;28;20048;-74
2021/12/21 13:49:27;;;;;;;;;;;3.80;99.90;;;;;;5068553;28;20507;-75
2021/12/21 13:51:59;;;;;;;11.05;5.60;;;3.90;99.90;;;;;;5067142;28;19927;-75
2021/12/21 13:54:26;;;;;;;12.40;5.93;;;3.90;99.90;;;;;;5070252;28;20160;-75